sensor_id;sensor_type;location;lat;lon;timestamp;temperature;humidity
20911;DHT22;10615;42.702;23.314;2023-07-08T00:00:00;20.10;99.90
20911;DHT22;10615;42.702;23.314;2023-07-08T00:01:08;20.10;99.90
20911;DHT22;10615;42.702;23.314;2023-07-08T00:02:10;20.10;99.90
20911;DHT22;10615;42.702;23.314;2023-07-08T00:03:11;20.10;99.90
20911;DHT22;10615;42.702;23.314;2023-07-08T00:04:12;20.00;99.90
20911;DHT22;10615;42.702;23.314;2023-07-08T00:05:15;20.00;99.90
20911;DHT22;10615;42.702;23.314;2023-07-08T00:06:25;20.10;99.90
20911;DHT22;10615;42.702;23.314;2023-07-08T00:07:26;20.00;99.90
20911;DHT22;10615;42.702;23.314;2023-07-08T00:08:27;20.00;99.90
20911;DHT22;10615;42.702;23.314;2023-07-08T00:09:27;20.00;99.90
20911;DHT22;10615;42.702;23.314;2023-07-08T00:10:29;19.90;99.90
20911;DHT22;10615;42.702;23.314;2023-07-08T00:11:30;19.90;99.90
20911;DHT22;10615;42.702;23.314;2023-07-08T00:12:30;19.90;99.90
20911;DHT22;10615;42.702;23.314;2023-07-08T00:13:31;19.90;99.90
20911;DHT22;10615;42.702;23.314;2023-07-08T00:14:32;19.80;99.90
20911;DHT22;10615;42.702;23.314;2023-07-08T00:15:32;19.90;99.90
20911;DHT22;10615;42.702;23.314;2023-07-08T00:16:34;19.80;99.90
20911;DHT22;10615;42.702;23.314;2023-07-08T00:17:35;19.80;99.90
20911;DHT22;10615;42.702;23.314;2023-07-08T00:18:36;19.80;99.90
20911;DHT22;10615;42.702;23.314;2023-07-08T00:19:36;19.80;99.90
20911;DHT22;10615;42.702;23.314;2023-07-08T00:20:45;19.80;99.90
20911;DHT22;10615;42.702;23.314;2023-07-08T00:21:47;19.80;99.90
20911;DHT22;10615;42.702;23.314;2023-07-08T00:22:48;19.70;99.90
20911;DHT22;10615;42.702;23.314;2023-07-08T00:23:51;19.70;99.90
20911;DHT22;10615;42.702;23.314;2023-07-08T00:24:52;19.70;99.90
20911;DHT22;10615;42.702;23.314;2023-07-08T00:25:52;19.70;99.90
20911;DHT22;10615;42.702;23.314;2023-07-08T00:26:53;19.70;99.90
20911;DHT22;10615;42.702;23.314;2023-07-08T00:27:54;19.70;99.90
20911;DHT22;10615;42.702;23.314;2023-07-08T00:28:55;19.70;99.90
20911;DHT22;10615;42.702;23.314;2023-07-08T00:29:56;19.70;99.90
20911;DHT22;10615;42.702;23.314;2023-07-08T00:30:57;19.60;99.90
20911;DHT22;10615;42.702;23.314;2023-07-08T00:31:58;19.60;99.90
20911;DHT22;10615;42.702;23.314;2023-07-08T00:32:59;19.60;99.90
20911;DHT22;10615;42.702;23.314;2023-07-08T00:34:00;19.60;99.90
20911;DHT22;10615;42.702;23.314;2023-07-08T00:35:03;19.60;99.90
20911;DHT22;10615;42.702;23.314;2023-07-08T00:36:10;19.60;99.90
20911;DHT22;10615;42.702;23.314;2023-07-08T00:37:13;19.60;99.90
20911;DHT22;10615;42.702;23.314;2023-07-08T00:39:21;19.50;99.90
20911;DHT22;10615;42.702;23.314;2023-07-08T00:40:24;19.50;99.90
20911;DHT22;10615;42.702;23.314;2023-07-08T00:41:37;19.50;99.90
20911;DHT22;10615;42.702;23.314;2023-07-08T00:42:42;19.50;99.90
20911;DHT22;10615;42.702;23.314;2023-07-08T00:43:52;19.50;99.90
20911;DHT22;10615;42.702;23.314;2023-07-08T00:44:53;19.50;99.90
20911;DHT22;10615;42.702;23.314;2023-07-08T00:46:03;19.50;99.90
20911;DHT22;10615;42.702;23.314;2023-07-08T00:47:13;19.50;99.90
20911;DHT22;10615;42.702;23.314;2023-07-08T00:49:37;19.50;99.90
20911;DHT22;10615;42.702;23.314;2023-07-08T00:50:39;19.40;99.90
20911;DHT22;10615;42.702;23.314;2023-07-08T00:51:40;19.50;99.90
20911;DHT22;10615;42.702;23.314;2023-07-08T00:52:42;19.50;99.90
20911;DHT22;10615;42.702;23.314;2023-07-08T00:53:43;19.50;99.90
20911;DHT22;10615;42.702;23.314;2023-07-08T00:54:43;19.50;99.90
20911;DHT22;10615;42.702;23.314;2023-07-08T00:55:44;19.50;99.90
20911;DHT22;10615;42.702;23.314;2023-07-08T00:56:52;19.40;99.90
20911;DHT22;10615;42.702;23.314;2023-07-08T00:57:54;19.40;99.90
20911;DHT22;10615;42.702;23.314;2023-07-08T00:59:09;19.50;99.90
20911;DHT22;10615;42.702;23.314;2023-07-08T01:00:12;19.50;99.90
20911;DHT22;10615;42.702;23.314;2023-07-08T01:01:16;19.50;99.90
20911;DHT22;10615;42.702;23.314;2023-07-08T01:02:19;19.50;99.90
20911;DHT22;10615;42.702;23.314;2023-07-08T01:03:21;19.40;99.90
20911;DHT22;10615;42.702;23.314;2023-07-08T01:04:31;19.50;99.90
20911;DHT22;10615;42.702;23.314;2023-07-08T01:05:32;19.40;99.90
20911;DHT22;10615;42.702;23.314;2023-07-08T01:06:38;19.40;99.90
20911;DHT22;10615;42.702;23.314;2023-07-08T01:07:42;19.40;99.90
20911;DHT22;10615;42.702;23.314;2023-07-08T01:08:45;19.40;99.90
20911;DHT22;10615;42.702;23.314;2023-07-08T01:09:50;19.40;99.90
20911;DHT22;10615;42.702;23.314;2023-07-08T01:10:53;19.40;99.90
20911;DHT22;10615;42.702;23.314;2023-07-08T01:11:58;19.40;99.90
20911;DHT22;10615;42.702;23.314;2023-07-08T01:13:04;19.40;99.90
20911;DHT22;10615;42.702;23.314;2023-07-08T01:14:10;19.40;99.90
20911;DHT22;10615;42.702;23.314;2023-07-08T01:15:13;19.40;99.90
20911;DHT22;10615;42.702;23.314;2023-07-08T01:16:15;19.40;99.90
20911;DHT22;10615;42.702;23.314;2023-07-08T01:17:16;19.40;99.90
20911;DHT22;10615;42.702;23.314;2023-07-08T01:18:18;19.40;99.90
20911;DHT22;10615;42.702;23.314;2023-07-08T01:19:25;19.40;99.90
20911;DHT22;10615;42.702;23.314;2023-07-08T01:20:32;19.40;99.90
20911;DHT22;10615;42.702;23.314;2023-07-08T01:21:37;19.30;99.90
20911;DHT22;10615;42.702;23.314;2023-07-08T01:22:39;19.30;99.90
20911;DHT22;10615;42.702;23.314;2023-07-08T01:23:40;19.30;99.90
20911;DHT22;10615;42.702;23.314;2023-07-08T01:24:43;19.30;99.90
20911;DHT22;10615;42.702;23.314;2023-07-08T01:25:45;19.30;99.90
20911;DHT22;10615;42.702;23.314;2023-07-08T01:26:46;19.20;99.90
20911;DHT22;10615;42.702;23.314;2023-07-08T01:27:49;19.20;99.90
20911;DHT22;10615;42.702;23.314;2023-07-08T01:28:53;19.20;99.90
20911;DHT22;10615;42.702;23.314;2023-07-08T01:29:55;19.20;99.90
20911;DHT22;10615;42.702;23.314;2023-07-08T01:30:56;19.20;99.90
20911;DHT22;10615;42.702;23.314;2023-07-08T01:31:58;19.20;99.90
20911;DHT22;10615;42.702;23.314;2023-07-08T01:33:05;19.20;99.90
20911;DHT22;10615;42.702;23.314;2023-07-08T01:34:10;19.20;99.90
20911;DHT22;10615;42.702;23.314;2023-07-08T01:35:12;19.10;99.90
20911;DHT22;10615;42.702;23.314;2023-07-08T01:36:13;19.10;99.90
20911;DHT22;10615;42.702;23.314;2023-07-08T01:37:13;19.10;99.90
20911;DHT22;10615;42.702;23.314;2023-07-08T01:38:15;19.10;99.90
20911;DHT22;10615;42.702;23.314;2023-07-08T01:39:20;19.10;99.90
20911;DHT22;10615;42.702;23.314;2023-07-08T01:41:21;19.10;99.90
20911;DHT22;10615;42.702;23.314;2023-07-08T01:42:22;19.10;99.90
20911;DHT22;10615;42.702;23.314;2023-07-08T01:43:23;19.10;99.90
20911;DHT22;10615;42.702;23.314;2023-07-08T01:44:35;19.10;99.90
20911;DHT22;10615;42.702;23.314;2023-07-08T01:45:40;19.10;99.90
20911;DHT22;10615;42.702;23.314;2023-07-08T01:46:41;19.10;99.90
20911;DHT22;10615;42.702;23.314;2023-07-08T01:47:45;19.10;99.90
20911;DHT22;10615;42.702;23.314;2023-07-08T01:48:52;19.00;99.90
20911;DHT22;10615;42.702;23.314;2023-07-08T01:49:53;19.00;99.90
20911;DHT22;10615;42.702;23.314;2023-07-08T01:51:04;19.00;99.90
20911;DHT22;10615;42.702;23.314;2023-07-08T01:52:05;19.00;99.90
20911;DHT22;10615;42.702;23.314;2023-07-08T01:53:16;19.00;99.90
20911;DHT22;10615;42.702;23.314;2023-07-08T01:54:17;19.00;99.90
20911;DHT22;10615;42.702;23.314;2023-07-08T01:55:25;19.00;99.90
20911;DHT22;10615;42.702;23.314;2023-07-08T01:56:29;19.00;99.90
20911;DHT22;10615;42.702;23.314;2023-07-08T01:57:29;19.00;99.90
20911;DHT22;10615;42.702;23.314;2023-07-08T01:58:30;19.00;99.90
20911;DHT22;10615;42.702;23.314;2023-07-08T01:59:31;19.00;99.90
20911;DHT22;10615;42.702;23.314;2023-07-08T02:00:31;19.00;99.90
20911;DHT22;10615;42.702;23.314;2023-07-08T02:01:32;19.00;99.90
20911;DHT22;10615;42.702;23.314;2023-07-08T02:02:33;19.00;99.90
20911;DHT22;10615;42.702;23.314;2023-07-08T02:03:34;19.00;99.90
20911;DHT22;10615;42.702;23.314;2023-07-08T02:04:34;19.00;99.90
20911;DHT22;10615;42.702;23.314;2023-07-08T02:05:35;19.00;99.90
20911;DHT22;10615;42.702;23.314;2023-07-08T02:06:36;19.00;99.90
20911;DHT22;10615;42.702;23.314;2023-07-08T02:07:36;19.00;99.90
20911;DHT22;10615;42.702;23.314;2023-07-08T02:08:37;19.00;99.90
20911;DHT22;10615;42.702;23.314;2023-07-08T02:09:37;19.00;99.90
20911;DHT22;10615;42.702;23.314;2023-07-08T02:10:39;19.00;99.90
20911;DHT22;10615;42.702;23.314;2023-07-08T02:11:40;19.00;99.90
20911;DHT22;10615;42.702;23.314;2023-07-08T02:12:40;19.10;99.90
20911;DHT22;10615;42.702;23.314;2023-07-08T02:13:41;19.00;99.90
20911;DHT22;10615;42.702;23.314;2023-07-08T02:14:42;19.00;99.90
20911;DHT22;10615;42.702;23.314;2023-07-08T02:15:42;19.00;99.90
20911;DHT22;10615;42.702;23.314;2023-07-08T02:16:43;19.00;99.90
20911;DHT22;10615;42.702;23.314;2023-07-08T02:17:44;19.00;99.90
20911;DHT22;10615;42.702;23.314;2023-07-08T02:18:45;19.00;99.90
20911;DHT22;10615;42.702;23.314;2023-07-08T02:19:45;19.00;99.90
20911;DHT22;10615;42.702;23.314;2023-07-08T02:20:46;19.00;99.90
20911;DHT22;10615;42.702;23.314;2023-07-08T02:21:47;19.00;99.90
20911;DHT22;10615;42.702;23.314;2023-07-08T02:22:48;19.00;99.90
20911;DHT22;10615;42.702;23.314;2023-07-08T02:23:50;19.00;99.90
20911;DHT22;10615;42.702;23.314;2023-07-08T02:24:52;19.00;99.90
20911;DHT22;10615;42.702;23.314;2023-07-08T02:25:54;18.90;99.90
20911;DHT22;10615;42.702;23.314;2023-07-08T02:26:55;18.90;99.90
20911;DHT22;10615;42.702;23.314;2023-07-08T02:27:56;18.90;99.90
20911;DHT22;10615;42.702;23.314;2023-07-08T02:28:58;18.90;99.90
20911;DHT22;10615;42.702;23.314;2023-07-08T02:29:58;18.90;99.90
20911;DHT22;10615;42.702;23.314;2023-07-08T02:31:02;18.90;99.90
20911;DHT22;10615;42.702;23.314;2023-07-08T02:32:04;18.90;99.90
20911;DHT22;10615;42.702;23.314;2023-07-08T02:33:04;18.90;99.90
20911;DHT22;10615;42.702;23.314;2023-07-08T02:34:05;18.90;99.90
20911;DHT22;10615;42.702;23.314;2023-07-08T02:35:08;18.80;99.90
20911;DHT22;10615;42.702;23.314;2023-07-08T02:36:09;18.80;99.90
20911;DHT22;10615;42.702;23.314;2023-07-08T02:37:09;18.80;99.90
20911;DHT22;10615;42.702;23.314;2023-07-08T02:38:10;18.80;99.90
20911;DHT22;10615;42.702;23.314;2023-07-08T02:39:11;18.80;99.90
20911;DHT22;10615;42.702;23.314;2023-07-08T02:40:12;18.80;99.90
20911;DHT22;10615;42.702;23.314;2023-07-08T02:41:14;18.80;99.90
20911;DHT22;10615;42.702;23.314;2023-07-08T02:42:15;18.80;99.90
20911;DHT22;10615;42.702;23.314;2023-07-08T02:43:15;18.80;99.90
20911;DHT22;10615;42.702;23.314;2023-07-08T02:44:16;18.80;99.90
20911;DHT22;10615;42.702;23.314;2023-07-08T02:45:17;18.80;99.90
20911;DHT22;10615;42.702;23.314;2023-07-08T02:46:18;18.80;99.90
20911;DHT22;10615;42.702;23.314;2023-07-08T02:47:19;18.80;99.90
20911;DHT22;10615;42.702;23.314;2023-07-08T02:48:20;18.80;99.90
20911;DHT22;10615;42.702;23.314;2023-07-08T02:49:20;18.90;99.90
20911;DHT22;10615;42.702;23.314;2023-07-08T02:50:21;18.80;99.90
20911;DHT22;10615;42.702;23.314;2023-07-08T02:51:22;18.90;99.90
20911;DHT22;10615;42.702;23.314;2023-07-08T02:52:22;18.90;99.90
20911;DHT22;10615;42.702;23.314;2023-07-08T02:53:23;18.90;99.90
20911;DHT22;10615;42.702;23.314;2023-07-08T02:54:24;19.00;99.90
20911;DHT22;10615;42.702;23.314;2023-07-08T02:55:24;18.90;99.90
20911;DHT22;10615;42.702;23.314;2023-07-08T02:56:25;19.00;99.90
20911;DHT22;10615;42.702;23.314;2023-07-08T02:57:29;19.00;99.90
20911;DHT22;10615;42.702;23.314;2023-07-08T02:58:30;19.00;99.90
20911;DHT22;10615;42.702;23.314;2023-07-08T02:59:30;19.00;99.90
20911;DHT22;10615;42.702;23.314;2023-07-08T03:00:31;19.00;99.90
20911;DHT22;10615;42.702;23.314;2023-07-08T03:01:32;19.00;99.90
20911;DHT22;10615;42.702;23.314;2023-07-08T03:02:34;19.00;99.90
20911;DHT22;10615;42.702;23.314;2023-07-08T03:03:53;19.00;99.90
20911;DHT22;10615;42.702;23.314;2023-07-08T03:04:58;19.10;99.90
20911;DHT22;10615;42.702;23.314;2023-07-08T03:06:04;19.10;99.90
20911;DHT22;10615;42.702;23.314;2023-07-08T03:07:08;19.10;99.90
20911;DHT22;10615;42.702;23.314;2023-07-08T03:08:12;19.10;99.90
20911;DHT22;10615;42.702;23.314;2023-07-08T03:09:13;19.10;99.90
20911;DHT22;10615;42.702;23.314;2023-07-08T03:10:13;19.10;99.90
20911;DHT22;10615;42.702;23.314;2023-07-08T03:11:16;19.10;99.90
20911;DHT22;10615;42.702;23.314;2023-07-08T03:12:16;19.10;99.90
20911;DHT22;10615;42.702;23.314;2023-07-08T03:13:17;19.10;99.90
20911;DHT22;10615;42.702;23.314;2023-07-08T03:14:18;19.20;99.90
20911;DHT22;10615;42.702;23.314;2023-07-08T03:15:18;19.20;99.90
20911;DHT22;10615;42.702;23.314;2023-07-08T03:16:19;19.20;99.90
20911;DHT22;10615;42.702;23.314;2023-07-08T03:17:20;19.10;99.90
20911;DHT22;10615;42.702;23.314;2023-07-08T03:18:21;19.20;99.90
20911;DHT22;10615;42.702;23.314;2023-07-08T03:19:23;19.20;99.90
20911;DHT22;10615;42.702;23.314;2023-07-08T03:20:24;19.20;99.90
20911;DHT22;10615;42.702;23.314;2023-07-08T03:21:25;19.20;99.90
20911;DHT22;10615;42.702;23.314;2023-07-08T03:22:25;19.20;99.90
20911;DHT22;10615;42.702;23.314;2023-07-08T03:23:26;19.20;99.90
20911;DHT22;10615;42.702;23.314;2023-07-08T03:24:27;19.30;99.90
20911;DHT22;10615;42.702;23.314;2023-07-08T03:25:30;19.30;99.90
20911;DHT22;10615;42.702;23.314;2023-07-08T03:26:30;19.30;99.90
20911;DHT22;10615;42.702;23.314;2023-07-08T03:27:31;19.30;99.90
20911;DHT22;10615;42.702;23.314;2023-07-08T03:28:32;19.40;99.90
20911;DHT22;10615;42.702;23.314;2023-07-08T03:29:33;19.50;99.90
20911;DHT22;10615;42.702;23.314;2023-07-08T03:30:34;19.60;99.90
20911;DHT22;10615;42.702;23.314;2023-07-08T03:31:34;19.70;99.90
20911;DHT22;10615;42.702;23.314;2023-07-08T03:32:35;19.70;99.90
20911;DHT22;10615;42.702;23.314;2023-07-08T03:33:36;19.80;99.90
20911;DHT22;10615;42.702;23.314;2023-07-08T03:34:38;19.90;99.90
20911;DHT22;10615;42.702;23.314;2023-07-08T03:35:38;19.90;99.90
20911;DHT22;10615;42.702;23.314;2023-07-08T03:36:48;20.00;99.90
20911;DHT22;10615;42.702;23.314;2023-07-08T03:37:50;20.10;99.90
20911;DHT22;10615;42.702;23.314;2023-07-08T03:38:56;20.20;99.90
20911;DHT22;10615;42.702;23.314;2023-07-08T03:39:57;20.30;99.90
20911;DHT22;10615;42.702;23.314;2023-07-08T03:40:58;20.40;99.90
20911;DHT22;10615;42.702;23.314;2023-07-08T03:41:59;20.50;99.90
20911;DHT22;10615;42.702;23.314;2023-07-08T03:43:00;20.60;99.90
20911;DHT22;10615;42.702;23.314;2023-07-08T03:44:00;20.80;99.90
20911;DHT22;10615;42.702;23.314;2023-07-08T03:45:01;20.90;99.90
20911;DHT22;10615;42.702;23.314;2023-07-08T03:46:02;21.00;99.90
20911;DHT22;10615;42.702;23.314;2023-07-08T03:47:03;21.10;99.90
20911;DHT22;10615;42.702;23.314;2023-07-08T03:48:03;21.30;99.90
20911;DHT22;10615;42.702;23.314;2023-07-08T03:49:04;21.40;99.50
20911;DHT22;10615;42.702;23.314;2023-07-08T03:50:07;21.50;98.70
20911;DHT22;10615;42.702;23.314;2023-07-08T03:51:21;21.60;98.40
20911;DHT22;10615;42.702;23.314;2023-07-08T03:52:22;21.80;98.00
20911;DHT22;10615;42.702;23.314;2023-07-08T03:53:23;22.00;97.40
20911;DHT22;10615;42.702;23.314;2023-07-08T03:54:25;22.20;96.80
20911;DHT22;10615;42.702;23.314;2023-07-08T03:55:27;22.30;96.00
20911;DHT22;10615;42.702;23.314;2023-07-08T03:56:28;22.40;95.50
20911;DHT22;10615;42.702;23.314;2023-07-08T03:57:30;22.60;95.10
20911;DHT22;10615;42.702;23.314;2023-07-08T03:58:30;22.80;94.20
20911;DHT22;10615;42.702;23.314;2023-07-08T03:59:31;22.90;93.70
20911;DHT22;10615;42.702;23.314;2023-07-08T04:00:31;23.10;93.20
20911;DHT22;10615;42.702;23.314;2023-07-08T04:01:32;23.20;92.50
20911;DHT22;10615;42.702;23.314;2023-07-08T04:02:33;23.30;92.10
20911;DHT22;10615;42.702;23.314;2023-07-08T04:03:34;23.50;91.60
20911;DHT22;10615;42.702;23.314;2023-07-08T04:04:34;23.70;91.10
20911;DHT22;10615;42.702;23.314;2023-07-08T04:05:35;23.90;90.50
20911;DHT22;10615;42.702;23.314;2023-07-08T04:06:36;24.10;89.50
20911;DHT22;10615;42.702;23.314;2023-07-08T04:07:37;24.20;87.70
20911;DHT22;10615;42.702;23.314;2023-07-08T04:08:37;24.30;87.00
20911;DHT22;10615;42.702;23.314;2023-07-08T04:09:38;24.50;86.30
20911;DHT22;10615;42.702;23.314;2023-07-08T04:10:39;24.70;85.20
20911;DHT22;10615;42.702;23.314;2023-07-08T04:11:40;25.00;83.90
20911;DHT22;10615;42.702;23.314;2023-07-08T04:12:41;25.20;82.70
20911;DHT22;10615;42.702;23.314;2023-07-08T04:13:41;25.50;81.10
20911;DHT22;10615;42.702;23.314;2023-07-08T04:14:42;25.70;79.70
20911;DHT22;10615;42.702;23.314;2023-07-08T04:15:43;26.00;78.10
20911;DHT22;10615;42.702;23.314;2023-07-08T04:16:50;26.30;77.00
20911;DHT22;10615;42.702;23.314;2023-07-08T04:17:52;26.60;75.50
20911;DHT22;10615;42.702;23.314;2023-07-08T04:18:56;26.70;73.90
20911;DHT22;10615;42.702;23.314;2023-07-08T04:19:57;26.90;72.70
20911;DHT22;10615;42.702;23.314;2023-07-08T04:20:58;27.10;71.90
20911;DHT22;10615;42.702;23.314;2023-07-08T04:22:01;27.40;71.00
20911;DHT22;10615;42.702;23.314;2023-07-08T04:23:02;27.80;69.90
20911;DHT22;10615;42.702;23.314;2023-07-08T04:24:03;28.20;68.60
20911;DHT22;10615;42.702;23.314;2023-07-08T04:25:03;28.40;66.90
20911;DHT22;10615;42.702;23.314;2023-07-08T04:26:04;28.50;65.30
20911;DHT22;10615;42.702;23.314;2023-07-08T04:27:05;28.80;64.70
20911;DHT22;10615;42.702;23.314;2023-07-08T04:28:06;29.20;63.30
20911;DHT22;10615;42.702;23.314;2023-07-08T04:29:15;29.40;61.80
20911;DHT22;10615;42.702;23.314;2023-07-08T04:30:25;29.60;60.40
20911;DHT22;10615;42.702;23.314;2023-07-08T04:31:25;29.70;59.40
20911;DHT22;10615;42.702;23.314;2023-07-08T04:32:26;30.10;59.40
20911;DHT22;10615;42.702;23.314;2023-07-08T04:33:27;30.40;58.70
20911;DHT22;10615;42.702;23.314;2023-07-08T04:34:27;31.00;57.90
20911;DHT22;10615;42.702;23.314;2023-07-08T04:35:29;31.50;56.80
20911;DHT22;10615;42.702;23.314;2023-07-08T04:36:29;31.90;55.40
20911;DHT22;10615;42.702;23.314;2023-07-08T04:37:30;32.30;54.30
20911;DHT22;10615;42.702;23.314;2023-07-08T04:38:31;32.70;53.10
20911;DHT22;10615;42.702;23.314;2023-07-08T04:39:32;33.30;52.10
20911;DHT22;10615;42.702;23.314;2023-07-08T04:40:33;33.60;51.10
20911;DHT22;10615;42.702;23.314;2023-07-08T04:41:35;33.90;50.30
20911;DHT22;10615;42.702;23.314;2023-07-08T04:42:40;34.20;49.50
20911;DHT22;10615;42.702;23.314;2023-07-08T04:43:42;34.20;48.70
20911;DHT22;10615;42.702;23.314;2023-07-08T04:44:43;34.50;48.10
20911;DHT22;10615;42.702;23.314;2023-07-08T04:45:46;34.60;47.80
20911;DHT22;10615;42.702;23.314;2023-07-08T04:47:06;34.70;47.20
20911;DHT22;10615;42.702;23.314;2023-07-08T04:48:13;35.00;46.80
20911;DHT22;10615;42.702;23.314;2023-07-08T04:49:14;35.30;46.20
20911;DHT22;10615;42.702;23.314;2023-07-08T04:50:15;35.50;45.40
20911;DHT22;10615;42.702;23.314;2023-07-08T04:51:16;35.50;45.00
20911;DHT22;10615;42.702;23.314;2023-07-08T04:52:16;35.50;44.80
20911;DHT22;10615;42.702;23.314;2023-07-08T04:53:17;35.20;44.50
20911;DHT22;10615;42.702;23.314;2023-07-08T04:54:18;34.80;44.50
20911;DHT22;10615;42.702;23.314;2023-07-08T04:55:19;34.30;45.60
20911;DHT22;10615;42.702;23.314;2023-07-08T04:56:19;34.20;45.50
20911;DHT22;10615;42.702;23.314;2023-07-08T04:57:20;34.20;45.70
20911;DHT22;10615;42.702;23.314;2023-07-08T04:58:21;34.00;45.70
20911;DHT22;10615;42.702;23.314;2023-07-08T04:59:24;33.70;45.80
20911;DHT22;10615;42.702;23.314;2023-07-08T05:00:24;33.70;46.30
20911;DHT22;10615;42.702;23.314;2023-07-08T05:01:25;33.70;46.60
20911;DHT22;10615;42.702;23.314;2023-07-08T05:02:27;33.90;46.50
20911;DHT22;10615;42.702;23.314;2023-07-08T05:03:27;34.20;46.30
20911;DHT22;10615;42.702;23.314;2023-07-08T05:04:28;34.40;45.90
20911;DHT22;10615;42.702;23.314;2023-07-08T05:05:29;35.20;45.60
20911;DHT22;10615;42.702;23.314;2023-07-08T05:06:29;36.10;45.00
20911;DHT22;10615;42.702;23.314;2023-07-08T05:07:30;36.10;43.80
20911;DHT22;10615;42.702;23.314;2023-07-08T05:08:31;36.50;43.30
20911;DHT22;10615;42.702;23.314;2023-07-08T05:09:31;37.00;42.70
20911;DHT22;10615;42.702;23.314;2023-07-08T05:10:32;37.80;42.00
20911;DHT22;10615;42.702;23.314;2023-07-08T05:11:33;38.30;40.90
20911;DHT22;10615;42.702;23.314;2023-07-08T05:12:34;38.60;40.20
20911;DHT22;10615;42.702;23.314;2023-07-08T05:13:34;39.20;39.60
20911;DHT22;10615;42.702;23.314;2023-07-08T05:14:35;40.10;39.00
20911;DHT22;10615;42.702;23.314;2023-07-08T05:15:36;40.90;37.90
20911;DHT22;10615;42.702;23.314;2023-07-08T05:16:36;41.30;36.50
20911;DHT22;10615;42.702;23.314;2023-07-08T05:17:38;41.10;35.50
20911;DHT22;10615;42.702;23.314;2023-07-08T05:18:39;41.30;35.20
20911;DHT22;10615;42.702;23.314;2023-07-08T05:19:39;41.70;35.10
20911;DHT22;10615;42.702;23.314;2023-07-08T05:20:42;42.00;34.50
20911;DHT22;10615;42.702;23.314;2023-07-08T05:21:43;41.50;34.00
20911;DHT22;10615;42.702;23.314;2023-07-08T05:22:46;41.90;34.30
20911;DHT22;10615;42.702;23.314;2023-07-08T05:23:47;42.30;34.60
20911;DHT22;10615;42.702;23.314;2023-07-08T05:24:52;42.20;33.60
20911;DHT22;10615;42.702;23.314;2023-07-08T05:26:00;42.30;33.30
20911;DHT22;10615;42.702;23.314;2023-07-08T05:27:01;42.80;33.10
20911;DHT22;10615;42.702;23.314;2023-07-08T05:28:01;43.30;32.80
20911;DHT22;10615;42.702;23.314;2023-07-08T05:30:06;44.10;31.20
20911;DHT22;10615;42.702;23.314;2023-07-08T05:31:07;44.70;31.20
20911;DHT22;10615;42.702;23.314;2023-07-08T05:32:08;45.30;30.60
20911;DHT22;10615;42.702;23.314;2023-07-08T05:33:09;45.90;30.00
20911;DHT22;10615;42.702;23.314;2023-07-08T05:34:10;46.40;29.50
20911;DHT22;10615;42.702;23.314;2023-07-08T05:35:10;46.80;29.00
20911;DHT22;10615;42.702;23.314;2023-07-08T05:36:11;47.40;28.50
20911;DHT22;10615;42.702;23.314;2023-07-08T05:37:13;47.50;28.40
20911;DHT22;10615;42.702;23.314;2023-07-08T05:38:14;47.20;27.50
20911;DHT22;10615;42.702;23.314;2023-07-08T05:39:14;47.00;27.40
20911;DHT22;10615;42.702;23.314;2023-07-08T05:40:15;47.00;27.50
20911;DHT22;10615;42.702;23.314;2023-07-08T05:41:16;46.90;27.60
20911;DHT22;10615;42.702;23.314;2023-07-08T05:42:17;46.80;27.50
20911;DHT22;10615;42.702;23.314;2023-07-08T05:43:18;45.40;27.40
20911;DHT22;10615;42.702;23.314;2023-07-08T05:44:18;44.60;28.20
20911;DHT22;10615;42.702;23.314;2023-07-08T05:45:19;43.40;28.80
20911;DHT22;10615;42.702;23.314;2023-07-08T05:46:20;42.10;29.50
20911;DHT22;10615;42.702;23.314;2023-07-08T05:47:20;41.60;31.10
20911;DHT22;10615;42.702;23.314;2023-07-08T05:48:22;40.40;31.40
20911;DHT22;10615;42.702;23.314;2023-07-08T05:49:22;39.40;32.70
20911;DHT22;10615;42.702;23.314;2023-07-08T05:50:23;38.50;33.80
20911;DHT22;10615;42.702;23.314;2023-07-08T05:51:24;37.50;34.90
20911;DHT22;10615;42.702;23.314;2023-07-08T05:52:24;36.60;36.20
20911;DHT22;10615;42.702;23.314;2023-07-08T05:53:25;35.70;37.50
20911;DHT22;10615;42.702;23.314;2023-07-08T05:54:26;35.00;38.80
20911;DHT22;10615;42.702;23.314;2023-07-08T05:55:26;34.20;40.00
20911;DHT22;10615;42.702;23.314;2023-07-08T05:56:27;33.50;42.10
20911;DHT22;10615;42.702;23.314;2023-07-08T05:57:28;32.90;42.40
20911;DHT22;10615;42.702;23.314;2023-07-08T05:58:28;32.40;43.70
20911;DHT22;10615;42.702;23.314;2023-07-08T05:59:29;31.90;44.80
20911;DHT22;10615;42.702;23.314;2023-07-08T06:00:30;31.50;45.70
20911;DHT22;10615;42.702;23.314;2023-07-08T06:01:31;31.00;46.30
20911;DHT22;10615;42.702;23.314;2023-07-08T06:02:32;30.50;47.10
20911;DHT22;10615;42.702;23.314;2023-07-08T06:03:32;30.10;47.90
20911;DHT22;10615;42.702;23.314;2023-07-08T06:04:33;29.90;48.90
20911;DHT22;10615;42.702;23.314;2023-07-08T06:05:34;29.70;49.50
20911;DHT22;10615;42.702;23.314;2023-07-08T06:06:35;29.50;50.00
20911;DHT22;10615;42.702;23.314;2023-07-08T06:07:35;29.50;50.40
20911;DHT22;10615;42.702;23.314;2023-07-08T06:08:36;29.50;50.50
20911;DHT22;10615;42.702;23.314;2023-07-08T06:09:37;29.40;50.40
20911;DHT22;10615;42.702;23.314;2023-07-08T06:10:42;29.30;50.70
20911;DHT22;10615;42.702;23.314;2023-07-08T06:11:44;29.20;50.80
20911;DHT22;10615;42.702;23.314;2023-07-08T06:12:45;28.90;51.20
20911;DHT22;10615;42.702;23.314;2023-07-08T06:13:45;28.90;51.50
20911;DHT22;10615;42.702;23.314;2023-07-08T06:14:46;28.90;51.60
20911;DHT22;10615;42.702;23.314;2023-07-08T06:15:47;29.10;51.50
20911;DHT22;10615;42.702;23.314;2023-07-08T06:16:47;30.50;52.40
20911;DHT22;10615;42.702;23.314;2023-07-08T06:17:48;32.90;50.30
20911;DHT22;10615;42.702;23.314;2023-07-08T06:18:49;33.90;46.90
20911;DHT22;10615;42.702;23.314;2023-07-08T06:19:49;33.60;44.70
20911;DHT22;10615;42.702;23.314;2023-07-08T06:20:55;33.00;44.00
20911;DHT22;10615;42.702;23.314;2023-07-08T06:21:56;32.50;44.10
20911;DHT22;10615;42.702;23.314;2023-07-08T06:22:56;31.80;44.70
20911;DHT22;10615;42.702;23.314;2023-07-08T06:23:57;31.10;45.50
20911;DHT22;10615;42.702;23.314;2023-07-08T06:24:58;30.50;46.50
20911;DHT22;10615;42.702;23.314;2023-07-08T06:25:59;29.90;47.50
20911;DHT22;10615;42.702;23.314;2023-07-08T06:26:59;29.50;48.70
20911;DHT22;10615;42.702;23.314;2023-07-08T06:28:00;29.20;50.40
20911;DHT22;10615;42.702;23.314;2023-07-08T06:29:01;28.90;50.60